sensor_id;sensor_type;location;lat;lon;timestamp;pressure;altitude;pressure_sealevel;temperature;humidity
41254;BME280;26987;59.928;30.306;2022-07-29T00:00:15;101246.22;;;15.28;100.00
41254;BME280;26987;59.928;30.306;2022-07-29T00:02:43;101237.53;;;15.25;100.00
41254;BME280;26987;59.928;30.306;2022-07-29T00:05:11;101242.09;;;15.25;100.00
41254;BME280;26987;59.928;30.306;2022-07-29T00:07:40;101239.19;;;15.26;100.00
41254;BME280;26987;59.928;30.306;2022-07-29T00:10:08;101238.56;;;15.24;100.00
41254;BME280;26987;59.928;30.306;2022-07-29T00:12:36;101246.38;;;15.33;100.00
41254;BME280;26987;59.928;30.306;2022-07-29T00:15:05;101243.69;;;15.33;100.00
41254;BME280;26987;59.928;30.306;2022-07-29T00:17:34;101247.56;;;15.37;100.00
41254;BME280;26987;59.928;30.306;2022-07-29T00:20:03;101249.09;;;15.33;100.00
41254;BME280;26987;59.928;30.306;2022-07-29T00:22:31;101243.53;;;15.28;100.00
41254;BME280;26987;59.928;30.306;2022-07-29T00:24:59;101237.78;;;15.24;100.00
41254;BME280;26987;59.928;30.306;2022-07-29T00:27:27;101247.75;;;15.23;100.00
41254;BME280;26987;59.928;30.306;2022-07-29T00:29:55;101238.44;;;15.19;100.00
41254;BME280;26987;59.928;30.306;2022-07-29T00:32:23;101242.78;;;15.20;100.00
41254;BME280;26987;59.928;30.306;2022-07-29T00:34:53;101242.78;;;15.20;100.00
41254;BME280;26987;59.928;30.306;2022-07-29T00:37:38;101250.50;;;15.17;100.00
41254;BME280;26987;59.928;30.306;2022-07-29T00:40:07;101246.16;;;15.16;100.00
41254;BME280;26987;59.928;30.306;2022-07-29T00:42:42;101239.69;;;15.17;100.00
41254;BME280;26987;59.928;30.306;2022-07-29T00:45:10;101207.97;;;14.93;100.00
41254;BME280;26987;59.928;30.306;2022-07-29T00:47:38;101247.44;;;15.13;100.00
41254;BME280;26987;59.928;30.306;2022-07-29T00:50:10;101207.97;;;14.93;100.00
41254;BME280;26987;59.928;30.306;2022-07-29T00:52:39;101238.16;;;15.09;100.00
41254;BME280;26987;59.928;30.306;2022-07-29T00:55:09;101230.28;;;15.07;100.00
41254;BME280;26987;59.928;30.306;2022-07-29T00:57:38;101242.66;;;15.15;100.00
41254;BME280;26987;59.928;30.306;2022-07-29T01:00:09;101245.34;;;15.15;100.00
41254;BME280;26987;59.928;30.306;2022-07-29T01:02:38;101235.56;;;15.14;100.00
41254;BME280;26987;59.928;30.306;2022-07-29T01:05:08;101230.91;;;15.21;100.00
41254;BME280;26987;59.928;30.306;2022-07-29T01:07:36;101237.53;;;15.25;100.00
41254;BME280;26987;59.928;30.306;2022-07-29T01:10:06;101237.09;;;15.29;100.00
41254;BME280;26987;59.928;30.306;2022-07-29T01:12:37;101229.56;;;15.31;100.00
41254;BME280;26987;59.928;30.306;2022-07-29T01:15:07;101234.91;;;15.37;100.00
41254;BME280;26987;59.928;30.306;2022-07-29T01:17:40;101221.97;;;15.39;100.00
41254;BME280;26987;59.928;30.306;2022-07-29T01:20:15;101194.91;;;15.28;99.55
41254;BME280;26987;59.928;30.306;2022-07-29T01:22:50;101225.47;;;15.59;99.89
41254;BME280;26987;59.928;30.306;2022-07-29T01:25:43;101236.75;;;15.56;98.43
41254;BME280;26987;59.928;30.306;2022-07-29T01:31:16;101234.75;;;15.51;96.83
41254;BME280;26987;59.928;30.306;2022-07-29T01:33:50;101228.50;;;15.50;97.04
41254;BME280;26987;59.928;30.306;2022-07-29T01:36:35;101230.13;;;15.51;97.29
41254;BME280;26987;59.928;30.306;2022-07-29T01:39:08;101232.38;;;15.55;96.96
41254;BME280;26987;59.928;30.306;2022-07-29T01:41:47;101230.75;;;15.54;96.67
41254;BME280;26987;59.928;30.306;2022-07-29T01:44:19;101226.97;;;15.55;96.46
41254;BME280;26987;59.928;30.306;2022-07-29T01:46:54;101225.78;;;15.50;96.38
41254;BME280;26987;59.928;30.306;2022-07-29T01:49:27;101232.53;;;15.60;96.02
41254;BME280;26987;59.928;30.306;2022-07-29T01:51:59;101234.63;;;15.58;95.91
41254;BME280;26987;59.928;30.306;2022-07-29T01:54:34;101238.75;;;15.60;95.83
41254;BME280;26987;59.928;30.306;2022-07-29T01:57:04;101236.28;;;15.59;95.69
41254;BME280;26987;59.928;30.306;2022-07-29T01:59:34;101241.22;;;15.62;95.38
41254;BME280;26987;59.928;30.306;2022-07-29T02:02:08;101201.03;;;15.35;95.36
41254;BME280;26987;59.928;30.306;2022-07-29T02:04:39;101243.69;;;15.63;95.49
41254;BME280;26987;59.928;30.306;2022-07-29T02:07:10;101241.16;;;15.69;95.44
41254;BME280;26987;59.928;30.306;2022-07-29T02:09:41;101249.41;;;15.86;94.25
41254;BME280;26987;59.928;30.306;2022-07-29T02:12:10;101255.31;;;16.13;92.57
41254;BME280;26987;59.928;30.306;2022-07-29T02:14:42;101256.88;;;16.33;91.48
41254;BME280;26987;59.928;30.306;2022-07-29T02:17:16;101249.47;;;16.41;90.85
41254;BME280;26987;59.928;30.306;2022-07-29T02:19:47;101261.22;;;16.46;90.30
41254;BME280;26987;59.928;30.306;2022-07-29T02:22:18;101270.78;;;16.49;90.22
41254;BME280;26987;59.928;30.306;2022-07-29T02:24:47;101264.75;;;16.35;90.29
41254;BME280;26987;59.928;30.306;2022-07-29T02:27:17;101254.84;;;16.29;90.93
41254;BME280;26987;59.928;30.306;2022-07-29T02:29:47;101261.44;;;16.21;91.11
41254;BME280;26987;59.928;30.306;2022-07-29T02:32:18;101257.78;;;16.15;91.58
41254;BME280;26987;59.928;30.306;2022-07-29T02:34:49;101254.72;;;16.11;91.51
41254;BME280;26987;59.928;30.306;2022-07-29T02:37:18;101268.03;;;16.13;91.33
41254;BME280;26987;59.928;30.306;2022-07-29T02:39:47;101260.94;;;16.12;91.43
41254;BME280;26987;59.928;30.306;2022-07-29T02:42:16;101268.38;;;16.17;91.00
41254;BME280;26987;59.928;30.306;2022-07-29T02:44:45;101265.44;;;16.18;90.79
41254;BME280;26987;59.928;30.306;2022-07-29T02:47:18;101266.84;;;16.21;90.78
41254;BME280;26987;59.928;30.306;2022-07-29T02:49:48;101265.69;;;16.41;90.49
41254;BME280;26987;59.928;30.306;2022-07-29T02:52:24;101259.56;;;16.21;90.12
41254;BME280;26987;59.928;30.306;2022-07-29T02:54:56;101262.13;;;16.16;90.21
41254;BME280;26987;59.928;30.306;2022-07-29T02:57:31;101248.81;;;16.14;90.04
41254;BME280;26987;59.928;30.306;2022-07-29T03:00:03;101261.78;;;16.12;89.79
41254;BME280;26987;59.928;30.306;2022-07-29T03:02:36;101253.88;;;16.11;89.98
41254;BME280;26987;59.928;30.306;2022-07-29T03:05:08;101256.94;;;16.14;90.23
41254;BME280;26987;59.928;30.306;2022-07-29T03:07:38;101253.66;;;16.12;90.68
41254;BME280;26987;59.928;30.306;2022-07-29T03:10:07;101255.53;;;16.12;90.96
41254;BME280;26987;59.928;30.306;2022-07-29T03:12:36;101262.59;;;16.13;91.02
41254;BME280;26987;59.928;30.306;2022-07-29T03:15:05;101255.06;;;16.15;90.73
41254;BME280;26987;59.928;30.306;2022-07-29T03:17:36;101257.66;;;16.10;90.62
41254;BME280;26987;59.928;30.306;2022-07-29T03:20:06;101225.84;;;15.93;90.35
41254;BME280;26987;59.928;30.306;2022-07-29T03:22:39;101253.28;;;16.09;90.21
41254;BME280;26987;59.928;30.306;2022-07-29T03:25:10;101238.59;;;16.05;89.92
41254;BME280;26987;59.928;30.306;2022-07-29T03:27:39;101243.53;;;16.08;89.56
41254;BME280;26987;59.928;30.306;2022-07-29T03:30:08;101250.13;;;16.12;89.65
41254;BME280;26987;59.928;30.306;2022-07-29T03:32:39;101256.38;;;16.12;89.56
41254;BME280;26987;59.928;30.306;2022-07-29T03:35:08;101222.06;;;15.94;89.08
41254;BME280;26987;59.928;30.306;2022-07-29T03:37:36;101255.44;;;16.19;89.23
41254;BME280;26987;59.928;30.306;2022-07-29T03:40:07;101233.19;;;16.17;88.67
41254;BME280;26987;59.928;30.306;2022-07-29T03:42:38;101254.03;;;16.28;88.41
41254;BME280;26987;59.928;30.306;2022-07-29T03:45:10;101248.06;;;16.38;87.77
41254;BME280;26987;59.928;30.306;2022-07-29T03:47:43;101247.13;;;16.44;87.96
41254;BME280;26987;59.928;30.306;2022-07-29T03:50:15;101229.22;;;16.43;87.11
41254;BME280;26987;59.928;30.306;2022-07-29T03:52:43;101243.72;;;16.73;86.33
41254;BME280;26987;59.928;30.306;2022-07-29T03:55:11;101248.06;;;16.86;85.57
41254;BME280;26987;59.928;30.306;2022-07-29T03:57:40;101261.94;;;17.01;85.17
41254;BME280;26987;59.928;30.306;2022-07-29T04:00:08;101257.00;;;17.22;84.45
41254;BME280;26987;59.928;30.306;2022-07-29T04:02:39;101247.75;;;17.35;83.82
41254;BME280;26987;59.928;30.306;2022-07-29T04:05:12;101190.31;;;17.21;82.39
41254;BME280;26987;59.928;30.306;2022-07-29T04:07:40;101261.78;;;17.73;81.49
41254;BME280;26987;59.928;30.306;2022-07-29T04:10:08;101260.34;;;18.00;80.15
41254;BME280;26987;59.928;30.306;2022-07-29T04:12:36;101262.63;;;18.20;79.02
41254;BME280;26987;59.928;30.306;2022-07-29T04:15:04;101265.72;;;18.81;76.27
41254;BME280;26987;59.928;30.306;2022-07-29T04:17:32;101257.56;;;19.43;73.10
41254;BME280;26987;59.928;30.306;2022-07-29T04:20:02;101263.97;;;20.09;70.00
41254;BME280;26987;59.928;30.306;2022-07-29T04:22:30;101271.81;;;20.38;68.28
41254;BME280;26987;59.928;30.306;2022-07-29T04:24:58;101267.97;;;20.28;68.13
41254;BME280;26987;59.928;30.306;2022-07-29T04:27:26;101262.03;;;20.04;69.09
41254;BME280;26987;59.928;30.306;2022-07-29T04:29:54;101246.81;;;19.81;69.77
41254;BME280;26987;59.928;30.306;2022-07-29T04:32:22;101252.03;;;19.60;70.63
41254;BME280;26987;59.928;30.306;2022-07-29T04:34:50;101262.81;;;19.49;71.27
41254;BME280;26987;59.928;30.306;2022-07-29T04:37:20;101265.66;;;19.37;71.52
41254;BME280;26987;59.928;30.306;2022-07-29T04:39:48;101267.78;;;19.13;72.24
41254;BME280;26987;59.928;30.306;2022-07-29T04:42:16;101265.91;;;18.96;73.19
41254;BME280;26987;59.928;30.306;2022-07-29T04:44:44;101262.66;;;18.94;73.40
41254;BME280;26987;59.928;30.306;2022-07-29T04:47:12;101260.69;;;18.89;73.12
41254;BME280;26987;59.928;30.306;2022-07-29T04:49:40;101257.22;;;18.94;72.87
41254;BME280;26987;59.928;30.306;2022-07-29T04:52:08;101258.19;;;19.05;72.70
41254;BME280;26987;59.928;30.306;2022-07-29T04:54:37;101267.16;;;19.28;72.17
41254;BME280;26987;59.928;30.306;2022-07-29T04:57:05;101255.09;;;19.41;71.39
41254;BME280;26987;59.928;30.306;2022-07-29T04:59:33;101264.47;;;19.78;69.94
41254;BME280;26987;59.928;30.306;2022-07-29T05:02:01;101248.34;;;19.99;68.52
41254;BME280;26987;59.928;30.306;2022-07-29T05:04:29;101253.25;;;20.29;67.39
41254;BME280;26987;59.928;30.306;2022-07-29T05:06:57;101264.28;;;20.50;66.34
41254;BME280;26987;59.928;30.306;2022-07-29T05:09:25;101260.91;;;20.71;65.56
41254;BME280;26987;59.928;30.306;2022-07-29T05:11:54;101263.38;;;20.77;65.33
41254;BME280;26987;59.928;30.306;2022-07-29T05:14:22;101256.28;;;20.76;64.56
41254;BME280;26987;59.928;30.306;2022-07-29T05:16:50;101264.03;;;20.95;64.04
41254;BME280;26987;59.928;30.306;2022-07-29T05:19:19;101236.72;;;20.85;63.94
41254;BME280;26987;59.928;30.306;2022-07-29T05:21:47;101253.19;;;21.05;63.04
41254;BME280;26987;59.928;30.306;2022-07-29T05:24:15;101253.19;;;21.05;63.22
41254;BME280;26987;59.928;30.306;2022-07-29T05:26:43;101254.53;;;20.98;62.33
41254;BME280;26987;59.928;30.306;2022-07-29T05:29:13;101258.06;;;20.98;62.82
41254;BME280;26987;59.928;30.306;2022-07-29T05:31:40;101260.22;;;20.91;63.17
41254;BME280;26987;59.928;30.306;2022-07-29T05:34:08;101255.34;;;20.93;63.15
41254;BME280;26987;59.928;30.306;2022-07-29T05:36:36;101267.50;;;20.85;63.61
41254;BME280;26987;59.928;30.306;2022-07-29T05:39:04;101257.72;;;20.84;64.24
41254;BME280;26987;59.928;30.306;2022-07-29T05:41:32;101257.41;;;20.75;64.89
41254;BME280;26987;59.928;30.306;2022-07-29T05:44:00;101254.06;;;20.68;65.24
41254;BME280;26987;59.928;30.306;2022-07-29T05:46:29;101258.44;;;20.69;66.12
41254;BME280;26987;59.928;30.306;2022-07-29T05:48:57;101258.75;;;20.78;65.75
41254;BME280;26987;59.928;30.306;2022-07-29T05:51:26;101258.31;;;20.53;66.90
41254;BME280;26987;59.928;30.306;2022-07-29T05:53:53;101258.13;;;20.60;66.91
41254;BME280;26987;59.928;30.306;2022-07-29T05:56:21;101253.38;;;20.45;67.36
41254;BME280;26987;59.928;30.306;2022-07-29T05:58:49;101255.09;;;20.57;67.39
41254;BME280;26987;59.928;30.306;2022-07-29T06:01:18;101219.28;;;20.37;67.09
41254;BME280;26987;59.928;30.306;2022-07-29T06:03:47;101248.09;;;20.71;66.78
41254;BME280;26987;59.928;30.306;2022-07-29T06:06:15;101249.81;;;20.88;65.92
41254;BME280;26987;59.928;30.306;2022-07-29T06:08:44;101250.41;;;20.90;64.66
41254;BME280;26987;59.928;30.306;2022-07-29T06:11:12;101248.19;;;20.87;64.22
41254;BME280;26987;59.928;30.306;2022-07-29T06:13:41;101255.00;;;20.89;63.71
41254;BME280;26987;59.928;30.306;2022-07-29T06:16:09;101257.94;;;20.77;63.29
41254;BME280;26987;59.928;30.306;2022-07-29T06:18:37;101253.31;;;20.78;63.16
41254;BME280;26987;59.928;30.306;2022-07-29T06:21:09;101250.97;;;20.97;62.95
41254;BME280;26987;59.928;30.306;2022-07-29T06:23:37;101253.88;;;20.85;62.74
41254;BME280;26987;59.928;30.306;2022-07-29T06:26:05;101249.75;;;20.72;63.46
41254;BME280;26987;59.928;30.306;2022-07-29T06:28:33;101256.81;;;20.73;63.86
41254;BME280;26987;59.928;30.306;2022-07-29T06:31:01;101272.28;;;20.62;65.14
41254;BME280;26987;59.928;30.306;2022-07-29T06:33:29;101266.03;;;20.62;64.72
41254;BME280;26987;59.928;30.306;2022-07-29T06:35:57;101266.38;;;20.76;64.50
41254;BME280;26987;59.928;30.306;2022-07-29T06:38:27;101151.16;;;20.32;64.30
41254;BME280;26987;59.928;30.306;2022-07-29T06:40:55;101257.00;;;21.04;64.10
41254;BME280;26987;59.928;30.306;2022-07-29T06:43:30;101258.94;;;21.04;64.20
41254;BME280;26987;59.928;30.306;2022-07-29T06:46:00;101260.25;;;20.96;63.47
41254;BME280;26987;59.928;30.306;2022-07-29T06:48:29;101262.28;;;20.73;64.05
41254;BME280;26987;59.928;30.306;2022-07-29T06:50:57;101261.09;;;20.59;64.68
41254;BME280;26987;59.928;30.306;2022-07-29T06:53:27;101266.16;;;20.45;65.44
41254;BME280;26987;59.928;30.306;2022-07-29T06:55:55;101264.16;;;20.29;65.97
41254;BME280;26987;59.928;30.306;2022-07-29T06:58:24;101261.50;;;20.07;66.04
41254;BME280;26987;59.928;30.306;2022-07-29T07:00:56;101261.84;;;19.88;67.06
41254;BME280;26987;59.928;30.306;2022-07-29T07:03:24;101268.56;;;19.81;67.59
41254;BME280;26987;59.928;30.306;2022-07-29T07:05:53;101216.66;;;19.54;67.86
41254;BME280;26987;59.928;30.306;2022-07-29T07:08:21;101265.56;;;19.77;67.64
41254;BME280;26987;59.928;30.306;2022-07-29T07:10:51;101268.63;;;19.86;67.28
41254;BME280;26987;59.928;30.306;2022-07-29T07:13:19;101274.66;;;19.88;64.19
41254;BME280;26987;59.928;30.306;2022-07-29T07:15:47;101273.34;;;20.23;63.35
41254;BME280;26987;59.928;30.306;2022-07-29T07:18:17;101271.34;;;20.46;61.87
41254;BME280;26987;59.928;30.306;2022-07-29T07:20:46;101275.56;;;20.64;61.20
41254;BME280;26987;59.928;30.306;2022-07-29T07:23:13;101276.56;;;20.91;60.43
41254;BME280;26987;59.928;30.306;2022-07-29T07:25:41;101271.28;;;20.79;59.64
41254;BME280;26987;59.928;30.306;2022-07-29T07:28:11;101270.72;;;20.72;59.67
41254;BME280;26987;59.928;30.306;2022-07-29T07:30:39;101277.06;;;20.88;60.14
41254;BME280;26987;59.928;30.306;2022-07-29T07:33:07;101279.16;;;21.19;58.95
41254;BME280;26987;59.928;30.306;2022-07-29T07:35:35;101273.31;;;21.58;57.87
41254;BME280;26987;59.928;30.306;2022-07-29T07:38:03;101273.94;;;22.07;55.37
41254;BME280;26987;59.928;30.306;2022-07-29T07:40:32;101280.25;;;22.39;53.08
41254;BME280;26987;59.928;30.306;2022-07-29T07:43:00;101280.78;;;22.72;52.14
41254;BME280;26987;59.928;30.306;2022-07-29T07:45:30;101278.25;;;22.91;51.11
41254;BME280;26987;59.928;30.306;2022-07-29T07:47:59;101274.94;;;23.05;49.07
41254;BME280;26987;59.928;30.306;2022-07-29T07:50:27;101274.69;;;22.96;48.86
41254;BME280;26987;59.928;30.306;2022-07-29T07:52:55;101269.84;;;22.72;49.04
41254;BME280;26987;59.928;30.306;2022-07-29T07:55:24;101265.22;;;22.73;48.40
41254;BME280;26987;59.928;30.306;2022-07-29T07:57:53;101270.66;;;22.83;47.94
41254;BME280;26987;59.928;30.306;2022-07-29T08:00:21;101279.09;;;22.92;47.98
41254;BME280;26987;59.928;30.306;2022-07-29T08:02:50;101277.50;;;22.75;48.30
41254;BME280;26987;59.928;30.306;2022-07-29T08:05:18;101276.94;;;22.78;49.10
41254;BME280;26987;59.928;30.306;2022-07-29T08:07:46;101280.50;;;22.74;48.79
41254;BME280;26987;59.928;30.306;2022-07-29T08:10:15;101267.63;;;22.74;49.04
41254;BME280;26987;59.928;30.306;2022-07-29T08:13:04;101276.31;;;22.97;48.93
41254;BME280;26987;59.928;30.306;2022-07-29T08:15:33;101279.34;;;23.01;48.75
41254;BME280;26987;59.928;30.306;2022-07-29T08:18:02;101275.84;;;22.74;49.88
41254;BME280;26987;59.928;30.306;2022-07-29T08:20:30;101286.22;;;22.77;49.42
41254;BME280;26987;59.928;30.306;2022-07-29T08:22:59;101282.94;;;22.80;49.44
41254;BME280;26987;59.928;30.306;2022-07-29T08:25:27;101291.72;;;22.72;49.02
41254;BME280;26987;59.928;30.306;2022-07-29T08:27:56;101288.41;;;22.80;49.27
41254;BME280;26987;59.928;30.306;2022-07-29T08:30:24;101293.84;;;22.96;48.48
41254;BME280;26987;59.928;30.306;2022-07-29T08:32:52;101289.50;;;22.85;48.35
41254;BME280;26987;59.928;30.306;2022-07-29T08:35:22;101277.16;;;22.98;48.46
41254;BME280;26987;59.928;30.306;2022-07-29T08:37:51;101294.63;;;23.07;48.55
41254;BME280;26987;59.928;30.306;2022-07-29T08:40:19;101276.09;;;22.88;48.60
41254;BME280;26987;59.928;30.306;2022-07-29T08:42:49;101280.47;;;22.79;48.75
41254;BME280;26987;59.928;30.306;2022-07-29T08:45:17;101304.19;;;23.04;48.63
41254;BME280;26987;59.928;30.306;2022-07-29T08:47:45;101293.81;;;23.06;48.94
41254;BME280;26987;59.928;30.306;2022-07-29T08:50:13;101306.09;;;23.14;49.18
41254;BME280;26987;59.928;30.306;2022-07-29T08:52:44;101306.31;;;23.18;49.21
41254;BME280;26987;59.928;30.306;2022-07-29T08:55:15;101315.91;;;23.15;47.86
41254;BME280;26987;59.928;30.306;2022-07-29T08:57:44;101287.28;;;22.92;48.19
41254;BME280;26987;59.928;30.306;2022-07-29T09:00:13;101303.66;;;23.02;48.96
41254;BME280;26987;59.928;30.306;2022-07-29T09:02:46;101309.41;;;23.01;48.13
41254;BME280;26987;59.928;30.306;2022-07-29T09:05:18;101312.94;;;23.06;48.63
41254;BME280;26987;59.928;30.306;2022-07-29T09:07:48;101311.63;;;22.78;49.76
41254;BME280;26987;59.928;30.306;2022-07-29T09:10:16;101315.47;;;22.77;49.75
41254;BME280;26987;59.928;30.306;2022-07-29T09:12:44;101317.13;;;22.67;50.42
41254;BME280;26987;59.928;30.306;2022-07-29T09:15:12;101310.00;;;22.56;50.60
41254;BME280;26987;59.928;30.306;2022-07-29T09:17:41;101302.91;;;22.39;51.23
41254;BME280;26987;59.928;30.306;2022-07-29T09:20:11;101305.66;;;22.50;51.53
41254;BME280;26987;59.928;30.306;2022-07-29T09:22:39;101312.47;;;22.37;52.75
41254;BME280;26987;59.928;30.306;2022-07-29T09:25:11;101314.13;;;22.38;53.47
41254;BME280;26987;59.928;30.306;2022-07-29T09:27:39;101302.38;;;22.27;53.48
41254;BME280;26987;59.928;30.306;2022-07-29T09:30:09;101304.28;;;22.21;52.94
41254;BME280;26987;59.928;30.306;2022-07-29T09:32:57;101314.91;;;22.38;52.50
41254;BME280;26987;59.928;30.306;2022-07-29T09:35:28;101300.16;;;22.08;51.60
41254;BME280;26987;59.928;30.306;2022-07-29T09:37:56;101287.06;;;22.15;51.16
41254;BME280;26987;59.928;30.306;2022-07-29T09:40:27;101263.06;;;22.12;50.84
41254;BME280;26987;59.928;30.306;2022-07-29T09:42:55;101305.91;;;22.48;49.76
41254;BME280;26987;59.928;30.306;2022-07-29T09:45:32;101316.03;;;22.63;48.74
41254;BME280;26987;59.928;30.306;2022-07-29T09:48:13;101308.91;;;22.62;49.75
41254;BME280;26987;59.928;30.306;2022-07-29T09:50:43;101302.91;;;22.24;51.35
41254;BME280;26987;59.928;30.306;2022-07-29T09:53:11;101302.06;;;22.02;52.14
41254;BME280;26987;59.928;30.306;2022-07-29T09:55:48;101325.03;;;22.43;51.57
41254;BME280;26987;59.928;30.306;2022-07-29T09:58:16;101284.59;;;21.98;51.34
41254;BME280;26987;59.928;30.306;2022-07-29T10:00:46;101315.72;;;22.13;51.72
41254;BME280;26987;59.928;30.306;2022-07-29T10:03:15;101314.63;;;21.98;51.27
41254;BME280;26987;59.928;30.306;2022-07-29T10:05:44;101279.56;;;21.53;51.52
41254;BME280;26987;59.928;30.306;2022-07-29T10:08:12;101312.94;;;21.82;51.53
41254;BME280;26987;59.928;30.306;2022-07-29T10:10:42;101304.81;;;21.97;50.56
41254;BME280;26987;59.928;30.306;2022-07-29T10:13:13;101303.72;;;22.09;49.06
41254;BME280;26987;59.928;30.306;2022-07-29T10:15:42;101307.53;;;22.34;48.08
41254;BME280;26987;59.928;30.306;2022-07-29T10:18:11;101313.56;;;22.72;47.22
41254;BME280;26987;59.928;30.306;2022-07-29T10:20:41;101312.16;;;22.85;46.29
41254;BME280;26987;59.928;30.306;2022-07-29T10:23:09;101310.78;;;22.88;46.22
41254;BME280;26987;59.928;30.306;2022-07-29T10:25:37;101308.63;;;22.85;45.94
41254;BME280;26987;59.928;30.306;2022-07-29T10:28:05;101304.28;;;22.68;46.98
41254;BME280;26987;59.928;30.306;2022-07-29T10:30:37;101316.84;;;22.64;48.30
41254;BME280;26987;59.928;30.306;2022-07-29T10:33:25;101315.19;;;22.73;48.18
41254;BME280;26987;59.928;30.306;2022-07-29T10:36:09;101309.44;;;22.49;48.81
41254;BME280;26987;59.928;30.306;2022-07-29T10:38:48;101306.72;;;22.33;47.50
41254;BME280;26987;59.928;30.306;2022-07-29T10:42:02;101310.00;;;22.35;46.91
41254;BME280;26987;59.928;30.306;2022-07-29T10:44:33;101310.50;;;21.90;46.28
41254;BME280;26987;59.928;30.306;2022-07-29T10:47:03;101308.00;;;21.73;46.50
41254;BME280;26987;59.928;30.306;2022-07-29T10:49:31;101319.97;;;21.72;46.24
41254;BME280;26987;59.928;30.306;2022-07-29T10:52:05;101304.22;;;21.90;46.78
41254;BME280;26987;59.928;30.306;2022-07-29T10:54:48;101320.34;;;21.97;47.73
41254;BME280;26987;59.928;30.306;2022-07-29T10:57:22;101307.19;;;21.78;47.71
41254;BME280;26987;59.928;30.306;2022-07-29T11:00:27;101315.09;;;21.74;47.40
41254;BME280;26987;59.928;30.306;2022-07-29T11:02:57;101312.81;;;21.45;49.61
41254;BME280;26987;59.928;30.306;2022-07-29T11:05:26;101311.97;;;21.39;51.11
41254;BME280;26987;59.928;30.306;2022-07-29T11:08:18;101321.41;;;21.80;50.81
41254;BME280;26987;59.928;30.306;2022-07-29T11:10:53;101319.97;;;21.72;51.15
41254;BME280;26987;59.928;30.306;2022-07-29T11:13:50;101304.22;;;21.90;49.70
41254;BME280;26987;59.928;30.306;2022-07-29T11:16:22;101315.38;;;21.78;49.88
41254;BME280;26987;59.928;30.306;2022-07-29T11:19:21;101321.72;;;22.04;49.49
41254;BME280;26987;59.928;30.306;2022-07-29T11:21:50;101323.81;;;21.71;49.84
41254;BME280;26987;59.928;30.306;2022-07-29T11:24:21;101328.44;;;21.65;49.04
41254;BME280;26987;59.928;30.306;2022-07-29T11:27:09;101324.31;;;21.63;48.84
41254;BME280;26987;59.928;30.306;2022-07-29T11:29:40;101328.78;;;21.21;49.92
41254;BME280;26987;59.928;30.306;2022-07-29T11:32:15;101328.38;;;20.96;51.63
41254;BME280;26987;59.928;30.306;2022-07-29T11:34:47;101326.91;;;20.83;52.95
41254;BME280;26987;59.928;30.306;2022-07-29T11:37:24;101328.84;;;20.88;53.72
41254;BME280;26987;59.928;30.306;2022-07-29T11:40:10;101320.78;;;21.03;52.65
41254;BME280;26987;59.928;30.306;2022-07-29T11:42:46;101327.88;;;21.04;52.57
41254;BME280;26987;59.928;30.306;2022-07-29T11:45:22;101339.31;;;21.01;52.03
41254;BME280;26987;59.928;30.306;2022-07-29T11:47:55;101298.72;;;20.67;51.92
41254;BME280;26987;59.928;30.306;2022-07-29T11:50:35;101328.03;;;20.87;49.51
41254;BME280;26987;59.928;30.306;2022-07-29T11:53:10;101298.41;;;20.63;49.30
41254;BME280;26987;59.928;30.306;2022-07-29T11:55:39;101318.91;;;20.71;49.55
41254;BME280;26987;59.928;30.306;2022-07-29T11:58:08;101321.81;;;20.59;48.46
41254;BME280;26987;59.928;30.306;2022-07-29T12:00:38;101331.66;;;20.60;48.06
41254;BME280;26987;59.928;30.306;2022-07-29T12:03:07;101321.28;;;20.57;47.91
41254;BME280;26987;59.928;30.306;2022-07-29T12:05:39;101330.75;;;20.49;48.22
41254;BME280;26987;59.928;30.306;2022-07-29T12:08:12;101330.75;;;20.49;47.99
41254;BME280;26987;59.928;30.306;2022-07-29T12:10:41;101329.25;;;20.36;49.07
41254;BME280;26987;59.928;30.306;2022-07-29T12:13:10;101300.81;;;20.22;49.94
41254;BME280;26987;59.928;30.306;2022-07-29T12:15:39;101329.16;;;20.26;50.63
41254;BME280;26987;59.928;30.306;2022-07-29T12:18:14;101323.63;;;20.15;51.11
41254;BME280;26987;59.928;30.306;2022-07-29T12:20:44;101322.06;;;19.97;52.57
41254;BME280;26987;59.928;30.306;2022-07-29T12:23:14;101323.66;;;19.93;53.94
41254;BME280;26987;59.928;30.306;2022-07-29T12:25:43;101314.56;;;19.82;56.25
41254;BME280;26987;59.928;30.306;2022-07-29T12:28:13;101325.91;;;19.74;57.93
41254;BME280;26987;59.928;30.306;2022-07-29T12:30:46;101323.03;;;19.86;57.92
41254;BME280;26987;59.928;30.306;2022-07-29T12:33:17;101315.47;;;19.88;54.99
41254;BME280;26987;59.928;30.306;2022-07-29T12:35:49;101320.31;;;19.86;55.06
41254;BME280;26987;59.928;30.306;2022-07-29T12:38:17;101268.56;;;19.53;54.03
41254;BME280;26987;59.928;30.306;2022-07-29T12:40:47;101320.50;;;19.79;54.66
41254;BME280;26987;59.928;30.306;2022-07-29T12:43:16;101320.84;;;19.83;55.77
41254;BME280;26987;59.928;30.306;2022-07-29T12:45:46;101321.66;;;19.83;57.08
41254;BME280;26987;59.928;30.306;2022-07-29T12:48:14;101329.84;;;19.88;57.62
41254;BME280;26987;59.928;30.306;2022-07-29T12:50:54;101331.38;;;19.79;56.76
41254;BME280;26987;59.928;30.306;2022-07-29T12:53:23;101329.75;;;19.78;56.62
41254;BME280;26987;59.928;30.306;2022-07-29T12:55:53;101341.09;;;19.70;56.84
41254;BME280;26987;59.928;30.306;2022-07-29T12:58:30;101325.53;;;19.65;58.04